RYR50XY LFMU-EGGW
Flight info
| Callsign | RYR50XY |
|---|---|
| Flight time | N/A |
| Altitude | 36000 |
| Route | FJR DCT NG DCT MOLEN DCT MTL DCT ETREK/N0436F380 DCT MADOT DCT MOPEM DCT CACHI DCT AVLON DCT OKRIX DCT BRY DCT CLM DCT KOPOR DCT PIREG DCT SOSUN DCT SUBIP UM733 UNDUG |
| Aircraft | B738/M-SDE3FGILRWY/SB1 |
Departure
| Time | 2026-04-24 22:49 |
|---|---|
| Airport | Béziers Vias airport (LFMU) |
Arrival
| Time | N/A |
|---|---|
| Airport | London Luton Airport (EGGW) |
| Time | Latitude | Longitude | Altitude | Speed | Heading |
|---|---|---|---|---|---|
| 2026-04-24 22:29 | 43.32149 | 3.35380 | 50 ft | 0 kts | 147° |
| 2026-04-24 22:40 | 43.32157 | 3.35372 | 48 ft | 2 kts | 139° |
| 2026-04-24 22:41 | 43.32169 | 3.35357 | 48 ft | 2 kts | 132° |
| 2026-04-24 22:41 | 43.32179 | 3.35339 | 48 ft | 2 kts | 117° |
| 2026-04-24 22:41 | 43.32185 | 3.35318 | 51 ft | 2 kts | 101° |
| 2026-04-24 22:41 | 43.32187 | 3.35303 | 47 ft | 2 kts | 91° |
| 2026-04-24 22:42 | 43.32185 | 3.35273 | 58 ft | 2 kts | 79° |
| 2026-04-24 22:42 | 43.32182 | 3.35255 | 38 ft | 1 kts | 83° |
| 2026-04-24 22:42 | 43.32182 | 3.35251 | 40 ft | 0 kts | 87° |
| 2026-04-24 22:43 | 43.32182 | 3.35257 | 43 ft | 2 kts | 87° |
| 2026-04-24 22:43 | 43.32185 | 3.35294 | 54 ft | 6 kts | 73° |
| 2026-04-24 22:43 | 43.32223 | 3.35324 | 48 ft | 7 kts | 5° |
| 2026-04-24 22:44 | 43.32270 | 3.35330 | 56 ft | 7 kts | 5° |
| 2026-04-24 22:44 | 43.32300 | 3.35334 | 56 ft | 7 kts | 5° |
| 2026-04-24 22:44 | 43.32338 | 3.35362 | 54 ft | 7 kts | 63° |
| 2026-04-24 22:44 | 43.32341 | 3.35427 | 55 ft | 7 kts | 93° |
| 2026-04-24 22:45 | 43.32335 | 3.35516 | 54 ft | 12 kts | 95° |
| 2026-04-24 22:45 | 43.32328 | 3.35642 | 53 ft | 14 kts | 95° |
| 2026-04-24 22:45 | 43.32320 | 3.35772 | 53 ft | 13 kts | 93° |
| 2026-04-24 22:45 | 43.32314 | 3.35897 | 53 ft | 13 kts | 94° |
| 2026-04-24 22:46 | 43.32308 | 3.36018 | 51 ft | 13 kts | 94° |
| 2026-04-24 22:46 | 43.32301 | 3.36147 | 50 ft | 15 kts | 94° |
| 2026-04-24 22:46 | 43.32293 | 3.36308 | 51 ft | 19 kts | 94° |
| 2026-04-24 22:46 | 43.32283 | 3.36496 | 50 ft | 20 kts | 94° |
| 2026-04-24 22:47 | 43.32272 | 3.36641 | 50 ft | 8 kts | 98° |
| 2026-04-24 22:47 | 43.32249 | 3.36706 | 50 ft | 7 kts | 122° |
| 2026-04-24 22:47 | 43.32247 | 3.36728 | 50 ft | 2 kts | 69° |
| 2026-04-24 22:47 | 43.32260 | 3.36728 | 50 ft | 2 kts | 308° |
| 2026-04-24 22:48 | 43.32267 | 3.36710 | 50 ft | 3 kts | 294° |
| 2026-04-24 22:48 | 43.32272 | 3.36656 | 50 ft | 5 kts | 275° |
| 2026-04-24 22:48 | 43.32273 | 3.36642 | 50 ft | 6 kts | 275° |
| 2026-04-24 22:48 | 43.32289 | 3.36327 | 51 ft | 69 kts | 274° |
| 2026-04-24 22:49 | 43.32343 | 3.35345 | 51 ft | 135 kts | 275° |
| 2026-04-24 22:49 | 43.32425 | 3.33836 | 273 ft | 170 kts | 276° |
| 2026-04-24 22:49 | 43.32693 | 3.32170 | 840 ft | 187 kts | 288° |
| 2026-04-24 22:49 | 43.33082 | 3.30452 | 1677 ft | 191 kts | 287° |
| 2026-04-24 22:50 | 43.33493 | 3.28663 | 2285 ft | 203 kts | 292° |
| 2026-04-24 22:50 | 43.34337 | 3.27040 | 2681 ft | 221 kts | 310° |
| 2026-04-24 22:50 | 43.35142 | 3.25114 | 2867 ft | 245 kts | 296° |
| 2026-04-24 22:50 | 43.36316 | 3.23327 | 3277 ft | 263 kts | 333° |
| 2026-04-24 22:51 | 43.38080 | 3.22869 | 4003 ft | 267 kts | 8° |
| 2026-04-24 22:51 | 43.39750 | 3.23923 | 4849 ft | 270 kts | 43° |
| 2026-04-24 22:51 | 43.40705 | 3.26126 | 5618 ft | 274 kts | 77° |
| 2026-04-24 22:51 | 43.40610 | 3.28658 | 6388 ft | 278 kts | 108° |
| 2026-04-24 22:52 | 43.40098 | 3.31271 | 7099 ft | 281 kts | 95° |
| 2026-04-24 22:52 | 43.39945 | 3.33927 | 7821 ft | 284 kts | 93° |
| 2026-04-24 22:52 | 43.39803 | 3.36650 | 8566 ft | 287 kts | 92° |
| 2026-04-24 22:52 | 43.39734 | 3.38088 | 8958 ft | 289 kts | 92° |
| 2026-04-24 22:53 | 43.39614 | 3.40860 | 9709 ft | 292 kts | 92° |
| 2026-04-24 22:53 | 43.39500 | 3.43660 | 10392 ft | 297 kts | 92° |
| 2026-04-24 22:53 | 43.39523 | 3.46584 | 10587 ft | 318 kts | 77° |
| 2026-04-24 22:53 | 43.40356 | 3.49477 | 10827 ft | 334 kts | 62° |
| 2026-04-24 22:54 | 43.41424 | 3.52370 | 11317 ft | 343 kts | 62° |
| 2026-04-24 22:54 | 43.42522 | 3.55304 | 11992 ft | 346 kts | 62° |
| 2026-04-24 22:54 | 43.43622 | 3.58260 | 12717 ft | 348 kts | 62° |
| 2026-04-24 22:54 | 43.44724 | 3.61245 | 13448 ft | 352 kts | 62° |
| 2026-04-24 22:55 | 43.45830 | 3.64267 | 14150 ft | 355 kts | 62° |
| 2026-04-24 22:55 | 43.46943 | 3.67326 | 14795 ft | 359 kts | 62° |
| 2026-04-24 22:55 | 43.48064 | 3.70419 | 15455 ft | 363 kts | 62° |
| 2026-04-24 22:55 | 43.49196 | 3.73552 | 16125 ft | 367 kts | 62° |
| 2026-04-24 22:56 | 43.50339 | 3.76719 | 16764 ft | 371 kts | 62° |
| 2026-04-24 22:56 | 43.51494 | 3.79924 | 17399 ft | 376 kts | 62° |
| 2026-04-24 22:56 | 43.52660 | 3.83166 | 18066 ft | 379 kts | 62° |
| 2026-04-24 22:56 | 43.53833 | 3.86432 | 18684 ft | 382 kts | 62° |
| 2026-04-24 22:57 | 43.55018 | 3.89731 | 19254 ft | 385 kts | 62° |
| 2026-04-24 22:57 | 43.56210 | 3.93053 | 19844 ft | 388 kts | 62° |
| 2026-04-24 22:57 | 43.57412 | 3.96399 | 20369 ft | 392 kts | 61° |
| 2026-04-24 22:57 | 43.58911 | 3.99540 | 20881 ft | 393 kts | 48° |
| 2026-04-24 22:58 | 43.60738 | 4.02355 | 21496 ft | 394 kts | 46° |
| 2026-04-24 22:58 | 43.62615 | 4.05131 | 22049 ft | 397 kts | 45° |
| 2026-04-24 22:58 | 43.64508 | 4.07930 | 22577 ft | 400 kts | 45° |
| 2026-04-24 22:58 | 43.66401 | 4.10768 | 23090 ft | 403 kts | 46° |
| 2026-04-24 22:59 | 43.68294 | 4.13644 | 23608 ft | 406 kts | 46° |
| 2026-04-24 22:59 | 43.70195 | 4.16558 | 24052 ft | 409 kts | 46° |
| 2026-04-24 22:59 | 43.74012 | 4.22455 | 24935 ft | 413 kts | 47° |
| 2026-04-24 23:00 | 43.75932 | 4.25429 | 25357 ft | 416 kts | 47° |
| 2026-04-24 23:00 | 43.77867 | 4.28428 | 25695 ft | 420 kts | 47° |
| 2026-04-24 23:00 | 43.79819 | 4.31456 | 26089 ft | 423 kts | 47° |
| 2026-04-24 23:00 | 43.81779 | 4.34498 | 26511 ft | 424 kts | 47° |
| 2026-04-24 23:01 | 43.83769 | 4.37526 | 26907 ft | 426 kts | 43° |
| 2026-04-24 23:01 | 43.86047 | 4.40151 | 27267 ft | 427 kts | 33° |
| 2026-04-24 23:01 | 43.88594 | 4.42248 | 27648 ft | 427 kts | 24° |
| 2026-04-24 23:01 | 43.91350 | 4.43815 | 28028 ft | 429 kts | 20° |
| 2026-04-24 23:02 | 43.94150 | 4.45265 | 28380 ft | 431 kts | 19° |
| 2026-04-24 23:02 | 43.96978 | 4.46725 | 28629 ft | 436 kts | 19° |
| 2026-04-24 23:02 | 43.99831 | 4.48228 | 28914 ft | 440 kts | 20° |
| 2026-04-24 23:02 | 44.02692 | 4.49768 | 29302 ft | 441 kts | 20° |
| 2026-04-24 23:03 | 44.05555 | 4.51321 | 29673 ft | 443 kts | 20° |
| 2026-04-24 23:03 | 44.08433 | 4.52869 | 29997 ft | 445 kts | 20° |
| 2026-04-24 23:03 | 44.11297 | 4.54389 | 30280 ft | 447 kts | 19° |
| 2026-04-24 23:03 | 44.14209 | 4.55928 | 30534 ft | 450 kts | 19° |
| 2026-04-24 23:04 | 44.17189 | 4.57502 | 30719 ft | 454 kts | 19° |
| 2026-04-24 23:04 | 44.20125 | 4.59058 | 31184 ft | 449 kts | 19° |
| 2026-04-24 23:04 | 44.22994 | 4.60584 | 31677 ft | 445 kts | 20° |
| 2026-04-24 23:04 | 44.25886 | 4.62124 | 32013 ft | 445 kts | 20° |
| 2026-04-24 23:05 | 44.28783 | 4.63669 | 32276 ft | 447 kts | 20° |
| 2026-04-24 23:05 | 44.31684 | 4.65218 | 32570 ft | 447 kts | 20° |
| 2026-04-24 23:05 | 44.34587 | 4.66770 | 32903 ft | 446 kts | 20° |
| 2026-04-24 23:05 | 44.37487 | 4.68322 | 33203 ft | 447 kts | 20° |
| 2026-04-24 23:06 | 44.40386 | 4.69875 | 33530 ft | 446 kts | 20° |
| 2026-04-24 23:06 | 44.43279 | 4.71427 | 33880 ft | 445 kts | 20° |
| 2026-04-24 23:06 | 44.46167 | 4.72977 | 34185 ft | 444 kts | 20° |
| 2026-04-24 23:06 | 44.49051 | 4.74527 | 34440 ft | 444 kts | 20° |
| 2026-04-24 23:07 | 44.51940 | 4.76047 | 34710 ft | 443 kts | 16° |
| 2026-04-24 23:07 | 44.54932 | 4.77034 | 34909 ft | 443 kts | 6° |
| 2026-04-24 23:07 | 44.57997 | 4.77328 | 35151 ft | 441 kts | 358° |
| 2026-04-24 23:07 | 44.61043 | 4.76952 | 35423 ft | 439 kts | 350° |
| 2026-04-24 23:08 | 44.64052 | 4.76277 | 35694 ft | 438 kts | 349° |
| 2026-04-24 23:08 | 44.67056 | 4.75565 | 35914 ft | 438 kts | 349° |
| 2026-04-24 23:08 | 44.70061 | 4.74851 | 36120 ft | 438 kts | 349° |
| 2026-04-24 23:09 | 44.76131 | 4.73449 | 36146 ft | 443 kts | 350° |
| 2026-04-24 23:09 | 44.82198 | 4.72091 | 36140 ft | 438 kts | 350° |
| 2026-04-24 23:10 | 44.88186 | 4.70761 | 36150 ft | 435 kts | 350° |
| 2026-04-24 23:10 | 44.94160 | 4.69429 | 36151 ft | 435 kts | 349° |
| 2026-04-24 23:11 | 45.00133 | 4.68094 | 36154 ft | 435 kts | 349° |
| 2026-04-24 23:11 | 45.06112 | 4.66754 | 36147 ft | 435 kts | 349° |
| 2026-04-24 23:12 | 45.12105 | 4.65407 | 36154 ft | 436 kts | 349° |
| 2026-04-24 23:12 | 45.18103 | 4.64058 | 36144 ft | 437 kts | 349° |
| 2026-04-24 23:13 | 45.24114 | 4.62691 | 36147 ft | 438 kts | 349° |
| 2026-04-24 23:13 | 45.30126 | 4.61312 | 36152 ft | 438 kts | 349° |
| 2026-04-24 23:14 | 45.36153 | 4.59927 | 36139 ft | 439 kts | 349° |
| 2026-04-24 23:14 | 45.42181 | 4.58539 | 36140 ft | 439 kts | 349° |
| 2026-04-24 23:15 | 45.48215 | 4.57148 | 36131 ft | 439 kts | 349° |
| 2026-04-24 23:15 | 45.54208 | 4.55764 | 36128 ft | 439 kts | 348° |
| 2026-04-24 23:16 | 45.60280 | 4.54357 | 36134 ft | 439 kts | 348° |
| 2026-04-24 23:16 | 45.66266 | 4.52967 | 36127 ft | 439 kts | 348° |
| 2026-04-24 23:17 | 45.72289 | 4.51567 | 36139 ft | 438 kts | 348° |
| 2026-04-24 23:17 | 45.78310 | 4.50166 | 36129 ft | 438 kts | 348° |
| 2026-04-24 23:18 | 45.84327 | 4.48765 | 36124 ft | 438 kts | 348° |
| 2026-04-24 23:18 | 45.90331 | 4.47364 | 36141 ft | 437 kts | 348° |
| 2026-04-24 23:19 | 45.96331 | 4.45960 | 36131 ft | 437 kts | 348° |
| 2026-04-24 23:19 | 46.02332 | 4.44552 | 36130 ft | 437 kts | 348° |
| 2026-04-24 23:20 | 46.08328 | 4.43142 | 36142 ft | 437 kts | 348° |
| 2026-04-24 23:20 | 46.14323 | 4.41730 | 36141 ft | 437 kts | 347° |
| 2026-04-24 23:21 | 46.20326 | 4.40312 | 36128 ft | 437 kts | 347° |
| 2026-04-24 23:21 | 46.26333 | 4.38891 | 36137 ft | 437 kts | 348° |
| 2026-04-24 23:22 | 46.32293 | 4.37204 | 36140 ft | 435 kts | 343° |
| 2026-04-24 23:22 | 46.38156 | 4.35102 | 36132 ft | 434 kts | 342° |
| 2026-04-24 23:23 | 46.44003 | 4.32978 | 36134 ft | 432 kts | 342° |
| 2026-04-24 23:23 | 46.49801 | 4.30914 | 36149 ft | 431 kts | 343° |
| 2026-04-24 23:24 | 46.55634 | 4.28859 | 36139 ft | 431 kts | 343° |
| 2026-04-24 23:24 | 46.61455 | 4.26808 | 36132 ft | 430 kts | 343° |
| 2026-04-24 23:25 | 46.67268 | 4.24756 | 36140 ft | 430 kts | 343° |
| 2026-04-24 23:25 | 46.73075 | 4.22700 | 36144 ft | 429 kts | 343° |
| 2026-04-24 23:26 | 46.78880 | 4.20639 | 36144 ft | 430 kts | 342° |
| 2026-04-24 23:26 | 46.84692 | 4.18572 | 36149 ft | 430 kts | 342° |
| 2026-04-24 23:27 | 46.90508 | 4.16498 | 36165 ft | 430 kts | 343° |
| 2026-04-24 23:27 | 46.96333 | 4.14417 | 36155 ft | 431 kts | 343° |
| 2026-04-24 23:28 | 47.02173 | 4.12326 | 36147 ft | 432 kts | 343° |
| 2026-04-24 23:28 | 47.07988 | 4.10085 | 36144 ft | 430 kts | 337° |
| 2026-04-24 23:29 | 47.13535 | 4.06843 | 36158 ft | 428 kts | 335° |
| 2026-04-24 23:29 | 47.19028 | 4.03464 | 36143 ft | 427 kts | 335° |
| 2026-04-24 23:30 | 47.24519 | 4.00149 | 36150 ft | 426 kts | 335° |